Hauptseite
METAR-TAF:

METAR-TAF

Flughäfen :

Flughafen Forlì

Forlì, Italien

Breite: 44-12N, Länge: 012-04E, Höhe: 27 m

Beobachtung

Neuester Wetterbericht von vor 1 Stunde und 0 Minuten, um 12:50 UTC
Wind 7 kt aus Nordwest
Temperatur 15°C
Luftfeuchtigkeit 39%
Luftdruck 1008 hPa
Sichtweite 10 km oder mehr
Leicht bewölkt in der Höhe von 1500 ft

METAR: LIPK 241250Z 32007KT 9999 FEW015 15/01 Q1008

Zeit: 14:50 (13:50 UTC)

Prognose

Neuester Wetterbericht von vor 2 Stunden und 50 Minuten, um 11:00 UTC
Gültige Prognose vom 24 um 12 UTC bis 25 um 12 UTC
Wind 10 kt aus West/Südwest
Sichtweite 10 km oder mehr
Aufgelockert bewölkt in der Höhe von 3000 ft
Wahrscheinlichkeit 40% :
Zeitweise
vom 24 um 14 UTC bis 24 um 20 UTC
Regenschauer
Übergehend zu
vom 24 um 18 UTC bis 24 um 20 UTC
Wind 5 kt aus unterschiedlichen Richtungen

TAF: LIPK 241100Z 2412/2512 24010KT 9999 SCT030 PROB40 TEMPO 2414/2420 SHRA BECMG 2418/2420 VRB05KT

Wetterbeobachtungen und Prognosen von mehr als 4000 Flughäfen (METAR und TAF Bericht).

Die verfügbaren Stationen werden durch gelbe und rote Markierungen auf der Karte dargestellt.

Führen Sie die Maus auf sie, um den Namen der Station zu sehen.

Darauf klicken, um die Beobachtung von Wetterbeobachtungen und Prognosen zu sehen.

Um die Karte zu ändern : klicken Sie auf den grünen Tasten mit einem schwarzen Kreuz Zum Vergrößern, auf den grünen Button mit einem Gedankenstrich zu verkleinern, oder auf die grünen Pfeile für benachbarte Karten.


METAR-TAF: